sensor_id;sensor_type;location;lat;lon;timestamp;temperature;humidity
14079;DHT22;7115;50.150;8.568;2023-03-21T00:01:49;10.90;99.90
14079;DHT22;7115;50.150;8.568;2023-03-21T00:04:15;11.10;99.90
14079;DHT22;7115;50.150;8.568;2023-03-21T00:06:44;11.10;99.90
14079;DHT22;7115;50.150;8.568;2023-03-21T00:09:12;11.10;99.90
14079;DHT22;7115;50.150;8.568;2023-03-21T00:11:39;11.10;99.90
14079;DHT22;7115;50.150;8.568;2023-03-21T00:14:06;11.10;99.90
14079;DHT22;7115;50.150;8.568;2023-03-21T00:16:34;11.00;99.90
14079;DHT22;7115;50.150;8.568;2023-03-21T00:19:21;11.00;99.90
14079;DHT22;7115;50.150;8.568;2023-03-21T00:21:53;11.00;99.90
14079;DHT22;7115;50.150;8.568;2023-03-21T00:24:33;11.00;99.90
14079;DHT22;7115;50.150;8.568;2023-03-21T00:27:01;11.00;99.90
14079;DHT22;7115;50.150;8.568;2023-03-21T00:29:48;10.90;99.90
14079;DHT22;7115;50.150;8.568;2023-03-21T00:32:16;10.90;99.90
14079;DHT22;7115;50.150;8.568;2023-03-21T00:34:43;10.90;99.90
14079;DHT22;7115;50.150;8.568;2023-03-21T00:37:29;10.90;99.90
14079;DHT22;7115;50.150;8.568;2023-03-21T00:39:56;10.90;99.90
14079;DHT22;7115;50.150;8.568;2023-03-21T00:42:23;10.90;99.90
14079;DHT22;7115;50.150;8.568;2023-03-21T00:44:50;10.90;99.90
14079;DHT22;7115;50.150;8.568;2023-03-21T00:47:16;10.80;99.90
14079;DHT22;7115;50.150;8.568;2023-03-21T00:49:43;10.80;99.90
14079;DHT22;7115;50.150;8.568;2023-03-21T00:52:10;10.80;99.90
14079;DHT22;7115;50.150;8.568;2023-03-21T00:54:47;10.80;99.90
14079;DHT22;7115;50.150;8.568;2023-03-21T00:57:14;10.80;99.90
14079;DHT22;7115;50.150;8.568;2023-03-21T00:59:41;10.70;99.90
14079;DHT22;7115;50.150;8.568;2023-03-21T01:02:08;10.70;99.90
14079;DHT22;7115;50.150;8.568;2023-03-21T01:04:34;10.70;99.90
14079;DHT22;7115;50.150;8.568;2023-03-21T01:07:01;10.70;99.90
14079;DHT22;7115;50.150;8.568;2023-03-21T01:09:28;10.70;99.90
14079;DHT22;7115;50.150;8.568;2023-03-21T01:11:56;10.70;99.90
14079;DHT22;7115;50.150;8.568;2023-03-21T01:14:24;10.70;99.90
14079;DHT22;7115;50.150;8.568;2023-03-21T01:16:51;10.70;99.90
14079;DHT22;7115;50.150;8.568;2023-03-21T01:19:20;10.70;99.90
14079;DHT22;7115;50.150;8.568;2023-03-21T01:21:53;10.70;99.90
14079;DHT22;7115;50.150;8.568;2023-03-21T01:24:20;10.60;99.90
14079;DHT22;7115;50.150;8.568;2023-03-21T01:26:47;10.60;99.90
14079;DHT22;7115;50.150;8.568;2023-03-21T01:29:15;10.60;99.90
14079;DHT22;7115;50.150;8.568;2023-03-21T01:31:42;10.60;99.90
14079;DHT22;7115;50.150;8.568;2023-03-21T01:34:09;10.60;99.90
14079;DHT22;7115;50.150;8.568;2023-03-21T01:36:36;10.50;99.90
14079;DHT22;7115;50.150;8.568;2023-03-21T01:39:04;10.50;99.90
14079;DHT22;7115;50.150;8.568;2023-03-21T01:41:34;10.50;99.90
14079;DHT22;7115;50.150;8.568;2023-03-21T01:44:16;10.40;99.90
14079;DHT22;7115;50.150;8.568;2023-03-21T01:46:44;10.40;99.90
14079;DHT22;7115;50.150;8.568;2023-03-21T01:49:35;10.40;99.90
14079;DHT22;7115;50.150;8.568;2023-03-21T01:52:07;10.40;99.90
14079;DHT22;7115;50.150;8.568;2023-03-21T01:54:40;10.40;99.90
14079;DHT22;7115;50.150;8.568;2023-03-21T01:57:11;10.40;99.90
14079;DHT22;7115;50.150;8.568;2023-03-21T01:59:42;10.40;99.90
14079;DHT22;7115;50.150;8.568;2023-03-21T02:02:13;10.40;99.90
14079;DHT22;7115;50.150;8.568;2023-03-21T02:04:43;10.40;99.90
14079;DHT22;7115;50.150;8.568;2023-03-21T02:07:25;10.40;99.90
14079;DHT22;7115;50.150;8.568;2023-03-21T02:09:55;10.40;99.90
14079;DHT22;7115;50.150;8.568;2023-03-21T02:12:24;10.40;99.90
14079;DHT22;7115;50.150;8.568;2023-03-21T02:14:53;10.40;99.90
14079;DHT22;7115;50.150;8.568;2023-03-21T02:17:27;10.40;99.90
14079;DHT22;7115;50.150;8.568;2023-03-21T02:20:35;10.40;99.90
14079;DHT22;7115;50.150;8.568;2023-03-21T02:26:38;10.40;99.90
14079;DHT22;7115;50.150;8.568;2023-03-21T02:32:22;10.30;99.90
14079;DHT22;7115;50.150;8.568;2023-03-21T02:35:21;10.30;99.90
14079;DHT22;7115;50.150;8.568;2023-03-21T02:37:56;10.30;99.90
14079;DHT22;7115;50.150;8.568;2023-03-21T02:40:31;10.30;99.90
14079;DHT22;7115;50.150;8.568;2023-03-21T02:43:03;10.40;99.90
14079;DHT22;7115;50.150;8.568;2023-03-21T02:45:46;10.40;99.90
14079;DHT22;7115;50.150;8.568;2023-03-21T02:48:18;10.40;99.90
14079;DHT22;7115;50.150;8.568;2023-03-21T02:50:58;10.40;99.90
14079;DHT22;7115;50.150;8.568;2023-03-21T02:53:32;10.40;99.90
14079;DHT22;7115;50.150;8.568;2023-03-21T02:56:00;10.40;99.90
14079;DHT22;7115;50.150;8.568;2023-03-21T02:58:29;10.40;99.90
14079;DHT22;7115;50.150;8.568;2023-03-21T03:00:57;10.40;99.90
14079;DHT22;7115;50.150;8.568;2023-03-21T03:03:24;10.40;99.90
14079;DHT22;7115;50.150;8.568;2023-03-21T03:06:01;10.50;99.90
14079;DHT22;7115;50.150;8.568;2023-03-21T03:08:37;10.40;99.90
14079;DHT22;7115;50.150;8.568;2023-03-21T03:11:28;10.40;99.90
14079;DHT22;7115;50.150;8.568;2023-03-21T03:14:11;10.40;99.90
14079;DHT22;7115;50.150;8.568;2023-03-21T03:17:12;10.40;99.90
14079;DHT22;7115;50.150;8.568;2023-03-21T03:19:53;10.30;99.90
14079;DHT22;7115;50.150;8.568;2023-03-21T03:22:39;10.30;99.90
14079;DHT22;7115;50.150;8.568;2023-03-21T03:25:12;10.30;99.90
14079;DHT22;7115;50.150;8.568;2023-03-21T03:27:57;10.20;99.90
14079;DHT22;7115;50.150;8.568;2023-03-21T03:30:25;10.20;99.90
14079;DHT22;7115;50.150;8.568;2023-03-21T03:33:08;10.20;99.90
14079;DHT22;7115;50.150;8.568;2023-03-21T03:35:36;10.10;99.90
14079;DHT22;7115;50.150;8.568;2023-03-21T03:38:05;10.10;99.90
14079;DHT22;7115;50.150;8.568;2023-03-21T03:40:38;10.10;99.90
14079;DHT22;7115;50.150;8.568;2023-03-21T03:43:10;10.10;99.90
14079;DHT22;7115;50.150;8.568;2023-03-21T03:45:42;10.00;99.90
14079;DHT22;7115;50.150;8.568;2023-03-21T03:48:15;10.00;99.90
14079;DHT22;7115;50.150;8.568;2023-03-21T03:50:48;10.00;99.90
14079;DHT22;7115;50.150;8.568;2023-03-21T03:53:20;10.00;99.90
14079;DHT22;7115;50.150;8.568;2023-03-21T03:55:50;10.00;99.90
14079;DHT22;7115;50.150;8.568;2023-03-21T03:58:19;9.90;99.90
14079;DHT22;7115;50.150;8.568;2023-03-21T04:00:53;9.90;99.90
14079;DHT22;7115;50.150;8.568;2023-03-21T04:03:20;9.90;99.90
14079;DHT22;7115;50.150;8.568;2023-03-21T04:05:47;9.90;99.90
14079;DHT22;7115;50.150;8.568;2023-03-21T04:08:15;9.90;99.90
14079;DHT22;7115;50.150;8.568;2023-03-21T04:10:43;9.90;99.90
14079;DHT22;7115;50.150;8.568;2023-03-21T04:13:11;9.80;99.90
14079;DHT22;7115;50.150;8.568;2023-03-21T04:15:38;9.80;99.90
14079;DHT22;7115;50.150;8.568;2023-03-21T04:18:05;9.90;99.90
14079;DHT22;7115;50.150;8.568;2023-03-21T04:20:32;9.90;99.90
14079;DHT22;7115;50.150;8.568;2023-03-21T04:23:09;9.90;99.90
14079;DHT22;7115;50.150;8.568;2023-03-21T04:25:37;9.90;99.90
14079;DHT22;7115;50.150;8.568;2023-03-21T04:28:14;9.90;99.90
14079;DHT22;7115;50.150;8.568;2023-03-21T04:30:41;9.90;99.90
14079;DHT22;7115;50.150;8.568;2023-03-21T04:33:26;9.90;99.90
14079;DHT22;7115;50.150;8.568;2023-03-21T04:35:53;9.90;99.90
14079;DHT22;7115;50.150;8.568;2023-03-21T04:38:21;9.90;99.90
14079;DHT22;7115;50.150;8.568;2023-03-21T04:40:48;10.10;99.90
14079;DHT22;7115;50.150;8.568;2023-03-21T04:43:17;10.00;99.90
14079;DHT22;7115;50.150;8.568;2023-03-21T04:45:44;10.00;99.90
14079;DHT22;7115;50.150;8.568;2023-03-21T04:48:10;10.00;99.90
14079;DHT22;7115;50.150;8.568;2023-03-21T04:50:39;10.00;99.90
14079;DHT22;7115;50.150;8.568;2023-03-21T04:53:06;10.00;99.90
14079;DHT22;7115;50.150;8.568;2023-03-21T04:55:33;10.00;99.90
14079;DHT22;7115;50.150;8.568;2023-03-21T04:58:03;10.00;99.90
14079;DHT22;7115;50.150;8.568;2023-03-21T05:00:31;9.90;99.90
14079;DHT22;7115;50.150;8.568;2023-03-21T05:03:03;9.80;99.90
14079;DHT22;7115;50.150;8.568;2023-03-21T05:05:30;9.80;99.90
14079;DHT22;7115;50.150;8.568;2023-03-21T05:07:57;9.70;99.90
14079;DHT22;7115;50.150;8.568;2023-03-21T05:10:24;9.70;99.90
14079;DHT22;7115;50.150;8.568;2023-03-21T05:12:51;9.70;99.90
14079;DHT22;7115;50.150;8.568;2023-03-21T05:15:18;9.70;99.90
14079;DHT22;7115;50.150;8.568;2023-03-21T05:17:46;9.70;99.90
14079;DHT22;7115;50.150;8.568;2023-03-21T05:20:14;9.70;99.90
14079;DHT22;7115;50.150;8.568;2023-03-21T05:22:43;9.70;99.90
14079;DHT22;7115;50.150;8.568;2023-03-21T05:25:11;9.60;99.90
14079;DHT22;7115;50.150;8.568;2023-03-21T05:27:38;9.60;99.90
14079;DHT22;7115;50.150;8.568;2023-03-21T05:30:13;9.60;99.90
14079;DHT22;7115;50.150;8.568;2023-03-21T05:32:40;9.60;99.90
14079;DHT22;7115;50.150;8.568;2023-03-21T05:35:08;9.60;99.90
14079;DHT22;7115;50.150;8.568;2023-03-21T05:37:36;9.60;99.90
14079;DHT22;7115;50.150;8.568;2023-03-21T05:40:05;9.60;99.90
14079;DHT22;7115;50.150;8.568;2023-03-21T05:42:33;9.70;99.90
14079;DHT22;7115;50.150;8.568;2023-03-21T05:45:00;9.70;99.90
14079;DHT22;7115;50.150;8.568;2023-03-21T05:47:27;9.70;99.90
14079;DHT22;7115;50.150;8.568;2023-03-21T05:49:54;9.70;99.90
14079;DHT22;7115;50.150;8.568;2023-03-21T05:52:22;9.70;99.90
14079;DHT22;7115;50.150;8.568;2023-03-21T05:54:49;9.70;99.90
14079;DHT22;7115;50.150;8.568;2023-03-21T05:57:16;9.70;99.90
14079;DHT22;7115;50.150;8.568;2023-03-21T05:59:44;9.70;99.90
14079;DHT22;7115;50.150;8.568;2023-03-21T06:02:11;9.80;99.90
14079;DHT22;7115;50.150;8.568;2023-03-21T06:04:38;9.80;99.90
14079;DHT22;7115;50.150;8.568;2023-03-21T06:07:05;9.90;99.90
14079;DHT22;7115;50.150;8.568;2023-03-21T06:09:34;10.00;99.90
14079;DHT22;7115;50.150;8.568;2023-03-21T06:12:00;10.00;99.90
14079;DHT22;7115;50.150;8.568;2023-03-21T06:14:27;10.00;99.90
14079;DHT22;7115;50.150;8.568;2023-03-21T06:16:54;10.00;99.90
14079;DHT22;7115;50.150;8.568;2023-03-21T06:19:21;10.00;99.90
14079;DHT22;7115;50.150;8.568;2023-03-21T06:21:48;10.00;99.90
14079;DHT22;7115;50.150;8.568;2023-03-21T06:24:15;10.00;99.90
14079;DHT22;7115;50.150;8.568;2023-03-21T06:26:44;10.00;99.90
14079;DHT22;7115;50.150;8.568;2023-03-21T06:29:12;10.00;99.90
14079;DHT22;7115;50.150;8.568;2023-03-21T06:31:38;10.10;99.90
14079;DHT22;7115;50.150;8.568;2023-03-21T06:34:06;10.20;99.90
14079;DHT22;7115;50.150;8.568;2023-03-21T06:36:32;10.30;99.90
14079;DHT22;7115;50.150;8.568;2023-03-21T06:38:59;10.50;99.90
14079;DHT22;7115;50.150;8.568;2023-03-21T06:41:26;10.60;99.90
14079;DHT22;7115;50.150;8.568;2023-03-21T06:43:54;10.80;99.90
14079;DHT22;7115;50.150;8.568;2023-03-21T06:46:21;11.00;99.90
14079;DHT22;7115;50.150;8.568;2023-03-21T06:48:48;11.20;99.90
14079;DHT22;7115;50.150;8.568;2023-03-21T06:51:15;11.40;99.90
14079;DHT22;7115;50.150;8.568;2023-03-21T06:53:42;11.80;99.90
14079;DHT22;7115;50.150;8.568;2023-03-21T06:56:10;12.10;99.90
14079;DHT22;7115;50.150;8.568;2023-03-21T06:58:39;12.50;99.90
14079;DHT22;7115;50.150;8.568;2023-03-21T07:01:07;12.80;99.90
14079;DHT22;7115;50.150;8.568;2023-03-21T07:03:35;13.10;99.90
14079;DHT22;7115;50.150;8.568;2023-03-21T07:06:04;13.20;99.90
14079;DHT22;7115;50.150;8.568;2023-03-21T07:08:32;13.30;99.90
14079;DHT22;7115;50.150;8.568;2023-03-21T07:10:59;13.20;99.90
14079;DHT22;7115;50.150;8.568;2023-03-21T07:13:26;13.20;99.90
14079;DHT22;7115;50.150;8.568;2023-03-21T07:15:53;13.10;99.90
14079;DHT22;7115;50.150;8.568;2023-03-21T07:18:21;13.00;99.90
14079;DHT22;7115;50.150;8.568;2023-03-21T07:20:50;13.00;99.90
14079;DHT22;7115;50.150;8.568;2023-03-21T07:23:17;12.90;99.90
14079;DHT22;7115;50.150;8.568;2023-03-21T07:25:46;12.90;99.90
14079;DHT22;7115;50.150;8.568;2023-03-21T07:28:13;12.90;99.90
14079;DHT22;7115;50.150;8.568;2023-03-21T07:30:41;13.00;99.90
14079;DHT22;7115;50.150;8.568;2023-03-21T07:33:08;13.00;99.90
14079;DHT22;7115;50.150;8.568;2023-03-21T07:35:36;13.10;99.90
14079;DHT22;7115;50.150;8.568;2023-03-21T07:38:04;13.30;99.90
14079;DHT22;7115;50.150;8.568;2023-03-21T07:40:31;13.30;99.90
14079;DHT22;7115;50.150;8.568;2023-03-21T07:42:59;13.20;99.90
14079;DHT22;7115;50.150;8.568;2023-03-21T07:45:25;13.10;99.90
14079;DHT22;7115;50.150;8.568;2023-03-21T07:47:53;12.90;99.90
14079;DHT22;7115;50.150;8.568;2023-03-21T07:50:20;12.80;99.90
14079;DHT22;7115;50.150;8.568;2023-03-21T07:52:48;12.60;99.90
14079;DHT22;7115;50.150;8.568;2023-03-21T07:55:15;12.60;99.90
14079;DHT22;7115;50.150;8.568;2023-03-21T07:57:43;12.50;99.90
14079;DHT22;7115;50.150;8.568;2023-03-21T08:00:11;12.50;99.90
14079;DHT22;7115;50.150;8.568;2023-03-21T08:02:39;12.50;99.90
14079;DHT22;7115;50.150;8.568;2023-03-21T08:05:07;12.50;99.90
14079;DHT22;7115;50.150;8.568;2023-03-21T08:07:33;12.60;99.90
14079;DHT22;7115;50.150;8.568;2023-03-21T08:10:02;12.70;99.90
14079;DHT22;7115;50.150;8.568;2023-03-21T08:12:29;12.80;99.90
14079;DHT22;7115;50.150;8.568;2023-03-21T08:14:56;12.90;99.90
14079;DHT22;7115;50.150;8.568;2023-03-21T08:17:26;13.10;99.90
14079;DHT22;7115;50.150;8.568;2023-03-21T08:19:53;13.20;99.90
14079;DHT22;7115;50.150;8.568;2023-03-21T08:22:20;13.30;99.90
14079;DHT22;7115;50.150;8.568;2023-03-21T08:24:47;13.40;99.90
14079;DHT22;7115;50.150;8.568;2023-03-21T08:27:15;13.30;99.90
14079;DHT22;7115;50.150;8.568;2023-03-21T08:29:43;13.30;99.90
14079;DHT22;7115;50.150;8.568;2023-03-21T08:32:10;13.30;99.90
14079;DHT22;7115;50.150;8.568;2023-03-21T08:34:37;13.30;99.90
14079;DHT22;7115;50.150;8.568;2023-03-21T08:37:05;13.20;99.90
14079;DHT22;7115;50.150;8.568;2023-03-21T08:39:32;13.10;99.90
14079;DHT22;7115;50.150;8.568;2023-03-21T08:41:59;13.10;99.90
14079;DHT22;7115;50.150;8.568;2023-03-21T08:44:28;13.10;99.90
14079;DHT22;7115;50.150;8.568;2023-03-21T08:46:55;13.10;99.90
14079;DHT22;7115;50.150;8.568;2023-03-21T08:49:22;13.00;99.90
14079;DHT22;7115;50.150;8.568;2023-03-21T08:51:48;13.00;99.90
14079;DHT22;7115;50.150;8.568;2023-03-21T08:54:20;13.00;99.90
14079;DHT22;7115;50.150;8.568;2023-03-21T08:56:47;12.90;99.90
14079;DHT22;7115;50.150;8.568;2023-03-21T08:59:14;12.90;99.90
14079;DHT22;7115;50.150;8.568;2023-03-21T09:01:42;12.90;99.90
14079;DHT22;7115;50.150;8.568;2023-03-21T09:04:10;13.00;99.90
14079;DHT22;7115;50.150;8.568;2023-03-21T09:06:38;13.00;99.90
14079;DHT22;7115;50.150;8.568;2023-03-21T09:09:06;13.10;99.90
14079;DHT22;7115;50.150;8.568;2023-03-21T09:11:34;13.20;99.90
14079;DHT22;7115;50.150;8.568;2023-03-21T09:14:01;13.20;99.90
14079;DHT22;7115;50.150;8.568;2023-03-21T09:16:29;13.20;99.90
14079;DHT22;7115;50.150;8.568;2023-03-21T09:18:57;13.20;99.90
14079;DHT22;7115;50.150;8.568;2023-03-21T09:21:26;13.20;99.90
14079;DHT22;7115;50.150;8.568;2023-03-21T09:23:54;13.20;99.90
14079;DHT22;7115;50.150;8.568;2023-03-21T09:26:24;13.20;99.90
14079;DHT22;7115;50.150;8.568;2023-03-21T09:28:51;13.20;99.90
14079;DHT22;7115;50.150;8.568;2023-03-21T09:31:18;13.20;99.90
14079;DHT22;7115;50.150;8.568;2023-03-21T09:33:49;13.20;99.90
14079;DHT22;7115;50.150;8.568;2023-03-21T09:36:19;13.20;99.90
14079;DHT22;7115;50.150;8.568;2023-03-21T09:38:48;13.20;99.90
14079;DHT22;7115;50.150;8.568;2023-03-21T09:41:24;13.20;99.90
14079;DHT22;7115;50.150;8.568;2023-03-21T09:44:05;13.20;99.90
14079;DHT22;7115;50.150;8.568;2023-03-21T09:46:42;13.20;99.90
14079;DHT22;7115;50.150;8.568;2023-03-21T09:49:16;13.10;99.90
14079;DHT22;7115;50.150;8.568;2023-03-21T09:51:48;13.10;99.90
14079;DHT22;7115;50.150;8.568;2023-03-21T09:54:22;13.10;99.90
14079;DHT22;7115;50.150;8.568;2023-03-21T09:56:53;13.10;99.90
14079;DHT22;7115;50.150;8.568;2023-03-21T09:59:26;13.20;99.90
14079;DHT22;7115;50.150;8.568;2023-03-21T10:01:53;13.30;99.90
14079;DHT22;7115;50.150;8.568;2023-03-21T10:04:21;13.30;99.90
14079;DHT22;7115;50.150;8.568;2023-03-21T10:06:55;13.30;99.90
14079;DHT22;7115;50.150;8.568;2023-03-21T10:09:26;13.40;99.90
14079;DHT22;7115;50.150;8.568;2023-03-21T10:11:57;13.40;99.90
14079;DHT22;7115;50.150;8.568;2023-03-21T10:14:27;13.50;99.90
14079;DHT22;7115;50.150;8.568;2023-03-21T10:16:56;13.50;99.90
14079;DHT22;7115;50.150;8.568;2023-03-21T10:19:27;13.40;99.90
14079;DHT22;7115;50.150;8.568;2023-03-21T10:21:55;13.50;99.90
14079;DHT22;7115;50.150;8.568;2023-03-21T10:24:31;13.50;99.90
14079;DHT22;7115;50.150;8.568;2023-03-21T10:26:59;13.60;99.90
14079;DHT22;7115;50.150;8.568;2023-03-21T10:29:29;13.60;99.90
14079;DHT22;7115;50.150;8.568;2023-03-21T10:31:57;13.60;99.90
14079;DHT22;7115;50.150;8.568;2023-03-21T10:34:29;13.60;99.90
14079;DHT22;7115;50.150;8.568;2023-03-21T10:37:00;13.70;99.90
14079;DHT22;7115;50.150;8.568;2023-03-21T10:39:32;13.80;99.90
14079;DHT22;7115;50.150;8.568;2023-03-21T10:42:00;13.80;99.90
14079;DHT22;7115;50.150;8.568;2023-03-21T10:44:31;13.80;99.90
14079;DHT22;7115;50.150;8.568;2023-03-21T10:47:03;13.70;99.90
14079;DHT22;7115;50.150;8.568;2023-03-21T10:49:31;13.50;99.90
14079;DHT22;7115;50.150;8.568;2023-03-21T10:52:09;13.40;99.90
14079;DHT22;7115;50.150;8.568;2023-03-21T10:54:37;13.20;99.90
14079;DHT22;7115;50.150;8.568;2023-03-21T10:57:07;13.20;99.90
14079;DHT22;7115;50.150;8.568;2023-03-21T10:59:37;13.20;99.90
14079;DHT22;7115;50.150;8.568;2023-03-21T11:02:06;13.10;99.90
14079;DHT22;7115;50.150;8.568;2023-03-21T11:04:44;13.00;99.90
14079;DHT22;7115;50.150;8.568;2023-03-21T11:07:14;12.90;99.90
14079;DHT22;7115;50.150;8.568;2023-03-21T11:09:46;12.80;99.90
14079;DHT22;7115;50.150;8.568;2023-03-21T11:12:18;12.80;99.90
14079;DHT22;7115;50.150;8.568;2023-03-21T11:14:53;12.70;99.90
14079;DHT22;7115;50.150;8.568;2023-03-21T11:17:22;12.60;99.90
14079;DHT22;7115;50.150;8.568;2023-03-21T11:19:51;12.60;99.90
14079;DHT22;7115;50.150;8.568;2023-03-21T11:22:21;12.50;99.90
14079;DHT22;7115;50.150;8.568;2023-03-21T11:24:51;12.50;99.90
14079;DHT22;7115;50.150;8.568;2023-03-21T11:27:19;12.50;99.90
14079;DHT22;7115;50.150;8.568;2023-03-21T11:29:48;12.50;99.90
14079;DHT22;7115;50.150;8.568;2023-03-21T11:32:21;12.50;99.90
14079;DHT22;7115;50.150;8.568;2023-03-21T11:34:50;12.60;99.90
14079;DHT22;7115;50.150;8.568;2023-03-21T11:37:24;12.60;99.90
14079;DHT22;7115;50.150;8.568;2023-03-21T11:39:59;12.70;99.90
14079;DHT22;7115;50.150;8.568;2023-03-21T11:42:32;12.70;99.90
14079;DHT22;7115;50.150;8.568;2023-03-21T11:45:11;12.80;99.90
14079;DHT22;7115;50.150;8.568;2023-03-21T11:47:38;12.80;99.90
14079;DHT22;7115;50.150;8.568;2023-03-21T11:50:18;12.80;99.90
14079;DHT22;7115;50.150;8.568;2023-03-21T11:52:57;12.90;99.90
14079;DHT22;7115;50.150;8.568;2023-03-21T11:55:34;12.90;99.90
14079;DHT22;7115;50.150;8.568;2023-03-21T11:58:14;12.90;99.90
14079;DHT22;7115;50.150;8.568;2023-03-21T12:00:50;12.80;99.90
14079;DHT22;7115;50.150;8.568;2023-03-21T12:03:36;12.80;99.90
14079;DHT22;7115;50.150;8.568;2023-03-21T12:06:21;12.90;99.90
14079;DHT22;7115;50.150;8.568;2023-03-21T12:09:02;12.80;99.90
14079;DHT22;7115;50.150;8.568;2023-03-21T12:11:36;12.80;99.90
14079;DHT22;7115;50.150;8.568;2023-03-21T12:14:10;12.80;99.90
14079;DHT22;7115;50.150;8.568;2023-03-21T12:16:52;12.80;99.90
14079;DHT22;7115;50.150;8.568;2023-03-21T12:19:40;12.90;99.90
14079;DHT22;7115;50.150;8.568;2023-03-21T12:22:11;12.90;99.90
14079;DHT22;7115;50.150;8.568;2023-03-21T12:24:47;12.90;99.90
14079;DHT22;7115;50.150;8.568;2023-03-21T12:27:24;13.00;99.90
14079;DHT22;7115;50.150;8.568;2023-03-21T12:30:04;12.90;99.90
14079;DHT22;7115;50.150;8.568;2023-03-21T12:32:47;13.10;99.90
14079;DHT22;7115;50.150;8.568;2023-03-21T12:35:26;13.00;99.90
14079;DHT22;7115;50.150;8.568;2023-03-21T12:38:02;12.90;99.90
14079;DHT22;7115;50.150;8.568;2023-03-21T12:40:42;12.90;99.90
14079;DHT22;7115;50.150;8.568;2023-03-21T12:43:28;12.90;99.90
14079;DHT22;7115;50.150;8.568;2023-03-21T12:46:00;12.90;99.90
14079;DHT22;7115;50.150;8.568;2023-03-21T12:48:36;12.90;99.90
14079;DHT22;7115;50.150;8.568;2023-03-21T12:51:10;12.80;99.90
14079;DHT22;7115;50.150;8.568;2023-03-21T12:53:50;12.80;99.90
14079;DHT22;7115;50.150;8.568;2023-03-21T12:56:23;12.70;99.90
14079;DHT22;7115;50.150;8.568;2023-03-21T12:58:56;12.70;99.90
14079;DHT22;7115;50.150;8.568;2023-03-21T13:01:25;12.70;99.90
14079;DHT22;7115;50.150;8.568;2023-03-21T13:04:07;12.50;99.90
14079;DHT22;7115;50.150;8.568;2023-03-21T13:06:36;12.70;99.90
14079;DHT22;7115;50.150;8.568;2023-03-21T13:09:09;12.60;99.90
14079;DHT22;7115;50.150;8.568;2023-03-21T13:11:41;12.60;99.90
14079;DHT22;7115;50.150;8.568;2023-03-21T13:14:13;12.50;99.90
14079;DHT22;7115;50.150;8.568;2023-03-21T13:16:46;12.60;99.90
14079;DHT22;7115;50.150;8.568;2023-03-21T13:19:19;12.60;99.90
14079;DHT22;7115;50.150;8.568;2023-03-21T13:21:56;12.50;99.90
14079;DHT22;7115;50.150;8.568;2023-03-21T13:24:28;12.50;99.90
14079;DHT22;7115;50.150;8.568;2023-03-21T13:27:02;12.50;99.90
14079;DHT22;7115;50.150;8.568;2023-03-21T13:29:33;12.50;99.90
14079;DHT22;7115;50.150;8.568;2023-03-21T13:32:16;12.60;99.90
14079;DHT22;7115;50.150;8.568;2023-03-21T13:34:53;12.70;99.90
14079;DHT22;7115;50.150;8.568;2023-03-21T13:37:22;12.70;99.90
14079;DHT22;7115;50.150;8.568;2023-03-21T13:39:51;12.60;99.90
14079;DHT22;7115;50.150;8.568;2023-03-21T13:42:26;12.50;99.90
14079;DHT22;7115;50.150;8.568;2023-03-21T13:44:58;12.50;99.90
14079;DHT22;7115;50.150;8.568;2023-03-21T13:47:36;12.50;99.90
14079;DHT22;7115;50.150;8.568;2023-03-21T13:50:28;12.40;99.90
14079;DHT22;7115;50.150;8.568;2023-03-21T13:53:19;12.40;99.90
14079;DHT22;7115;50.150;8.568;2023-03-21T13:56:06;12.40;99.90
14079;DHT22;7115;50.150;8.568;2023-03-21T13:58:37;12.30;99.90
14079;DHT22;7115;50.150;8.568;2023-03-21T14:03:58;12.20;99.90
14079;DHT22;7115;50.150;8.568;2023-03-21T14:06:32;12.20;99.90
14079;DHT22;7115;50.150;8.568;2023-03-21T14:09:00;12.20;99.90
14079;DHT22;7115;50.150;8.568;2023-03-21T14:11:30;12.20;99.90
14079;DHT22;7115;50.150;8.568;2023-03-21T14:14:00;12.20;99.90
14079;DHT22;7115;50.150;8.568;2023-03-21T14:16:28;12.30;99.90
14079;DHT22;7115;50.150;8.568;2023-03-21T14:18:59;12.30;99.90
14079;DHT22;7115;50.150;8.568;2023-03-21T14:21:28;12.30;99.90
14079;DHT22;7115;50.150;8.568;2023-03-21T14:23:57;12.30;99.90
14079;DHT22;7115;50.150;8.568;2023-03-21T14:26:25;12.40;99.90
14079;DHT22;7115;50.150;8.568;2023-03-21T14:28:53;12.40;99.90
14079;DHT22;7115;50.150;8.568;2023-03-21T14:31:21;12.30;99.90
14079;DHT22;7115;50.150;8.568;2023-03-21T14:33:51;12.30;99.90
14079;DHT22;7115;50.150;8.568;2023-03-21T14:36:22;12.30;99.90
14079;DHT22;7115;50.150;8.568;2023-03-21T14:38:56;12.30;99.90
14079;DHT22;7115;50.150;8.568;2023-03-21T14:41:24;12.30;99.90
14079;DHT22;7115;50.150;8.568;2023-03-21T14:44:07;12.20;99.90
14079;DHT22;7115;50.150;8.568;2023-03-21T14:46:39;12.20;99.90
14079;DHT22;7115;50.150;8.568;2023-03-21T14:49:23;12.10;99.90
14079;DHT22;7115;50.150;8.568;2023-03-21T14:51:52;12.20;99.90
14079;DHT22;7115;50.150;8.568;2023-03-21T14:54:19;12.20;99.90
14079;DHT22;7115;50.150;8.568;2023-03-21T14:56:48;12.20;99.90
14079;DHT22;7115;50.150;8.568;2023-03-21T14:59:19;12.20;99.90
14079;DHT22;7115;50.150;8.568;2023-03-21T15:01:49;12.20;99.90
14079;DHT22;7115;50.150;8.568;2023-03-21T15:04:17;12.20;99.90
14079;DHT22;7115;50.150;8.568;2023-03-21T15:06:50;12.20;99.90
14079;DHT22;7115;50.150;8.568;2023-03-21T15:09:18;12.30;99.90
14079;DHT22;7115;50.150;8.568;2023-03-21T15:11:50;12.30;99.90
14079;DHT22;7115;50.150;8.568;2023-03-21T15:14:20;12.30;99.90
14079;DHT22;7115;50.150;8.568;2023-03-21T15:16:50;12.40;99.90
14079;DHT22;7115;50.150;8.568;2023-03-21T15:19:23;12.40;99.90
14079;DHT22;7115;50.150;8.568;2023-03-21T15:21:54;12.50;99.90
14079;DHT22;7115;50.150;8.568;2023-03-21T15:24:27;12.50;99.90
14079;DHT22;7115;50.150;8.568;2023-03-21T15:26:58;12.60;99.90
14079;DHT22;7115;50.150;8.568;2023-03-21T15:29:26;12.60;99.90
14079;DHT22;7115;50.150;8.568;2023-03-21T15:31:55;12.70;99.90
14079;DHT22;7115;50.150;8.568;2023-03-21T15:34:23;12.80;99.90
14079;DHT22;7115;50.150;8.568;2023-03-21T15:36:59;12.70;99.90
14079;DHT22;7115;50.150;8.568;2023-03-21T15:39:27;12.80;99.90
14079;DHT22;7115;50.150;8.568;2023-03-21T15:41:57;12.80;99.90
14079;DHT22;7115;50.150;8.568;2023-03-21T15:44:25;12.80;99.90
14079;DHT22;7115;50.150;8.568;2023-03-21T15:46:55;12.80;99.90
14079;DHT22;7115;50.150;8.568;2023-03-21T15:49:26;12.80;99.90
14079;DHT22;7115;50.150;8.568;2023-03-21T15:52:00;12.90;99.90
14079;DHT22;7115;50.150;8.568;2023-03-21T15:54:30;12.90;99.90
14079;DHT22;7115;50.150;8.568;2023-03-21T15:56:59;12.90;99.90
14079;DHT22;7115;50.150;8.568;2023-03-21T15:59:33;12.90;99.90
14079;DHT22;7115;50.150;8.568;2023-03-21T16:02:03;12.90;99.90
14079;DHT22;7115;50.150;8.568;2023-03-21T16:04:30;12.90;99.90
14079;DHT22;7115;50.150;8.568;2023-03-21T16:06:59;12.90;99.90
14079;DHT22;7115;50.150;8.568;2023-03-21T16:09:27;12.90;99.90
14079;DHT22;7115;50.150;8.568;2023-03-21T16:12:09;12.90;99.90
14079;DHT22;7115;50.150;8.568;2023-03-21T16:14:37;12.90;99.90
14079;DHT22;7115;50.150;8.568;2023-03-21T16:17:21;12.90;99.90
14079;DHT22;7115;50.150;8.568;2023-03-21T16:19:51;12.90;99.90
14079;DHT22;7115;50.150;8.568;2023-03-21T16:22:18;12.90;99.90